Royal Clipper — 9HA2796 — position and weather

sailwx.info

Track history (hours):
 
Tides and Currents Weather Stations Pressure Air Temp Water Temp Dewpoint Dewpoint Depression Visibility Wind Speed Wind Dir Waves Ship Positions

Royal Clipper

Last reported at 2018-Dec-10 06:57 UTC. Time now 2018-Dec-11 00:56 UTC.
Position N 17°28' W 062°43'.

Length 137 m; draft 6.2 m.

Type: Ship. MMSI: 215813000.

Date/timePositionNaut miles runAvg speedWind from/ knotsBaromVisibWave heightAir tempDewpointWater temp
2018-Dec-10 06:57N 17°28' W 062°43'17 9.3
2018-Dec-10 05:07N 17°38' W 062°58'2 4.9
2018-Dec-10 04:41N 17°39' W 062°59'1 6.2
2018-Dec-10 04:30N 17°40' W 062°59'4 5.6
2018-Dec-10 03:51N 17°44' W 062°57'2 6.1
2018-Dec-10 03:29N 17°46' W 062°56'8 7.8
2018-Dec-10 02:24N 17°54' W 062°53'4 0.3
2018-Dec-09 13:55N 17°55' W 062°58'5 9.2
2018-Dec-09 13:21N 17°55' W 063°03'3 9.0
2018-Dec-09 12:58N 17°55' W 063°07'5 9.3
2018-Dec-09 12:29N 17°55' W 063°11'6 9.2
2018-Dec-09 11:47N 17°56' W 063°18'5 9.2
2018-Dec-09 11:17N 17°56' W 063°23'  
Track history (hours):
 
Tides and Currents Weather Stations Pressure Air Temp Water Temp Dewpoint Dewpoint Depression Visibility Wind Speed Wind Dir Waves Ship Positions

Royal Clipper

Last reported at 2018-Dec-10 06:57 UTC. Time now 2018-Dec-11 00:56 UTC.
Position N 17°28' W 062°43'.

Length 137 m; draft 6.2 m.

Type: Ship. MMSI: 215813000.

Date/timePositionNaut miles runAvg speedWind from/ knotsBaromVisibWave heightAir tempDewpointWater temp
2018-Dec-10 06:57N 17°28' W 062°43'17 9.3
2018-Dec-10 05:07N 17°38' W 062°58'2 4.9
2018-Dec-10 04:41N 17°39' W 062°59'1 6.2
2018-Dec-10 04:30N 17°40' W 062°59'4 5.6
2018-Dec-10 03:51N 17°44' W 062°57'2 6.1
2018-Dec-10 03:29N 17°46' W 062°56'8 7.8
2018-Dec-10 02:24N 17°54' W 062°53'4 0.3
2018-Dec-09 13:55N 17°55' W 062°58'5 9.2
2018-Dec-09 13:21N 17°55' W 063°03'3 9.0
2018-Dec-09 12:58N 17°55' W 063°07'5 9.3
2018-Dec-09 12:29N 17°55' W 063°11'6 9.2
2018-Dec-09 11:47N 17°56' W 063°18'5 9.2
2018-Dec-09 11:17N 17°56' W 063°23'  

Dump ship's entire track history